createdAt,value
2019-04-03T00:01:26.178Z,9.00
2019-04-03T00:03:54.412Z,9.10
2019-04-03T00:06:21.891Z,9.10
2019-04-03T00:08:49.475Z,9.10
2019-04-03T00:11:17.134Z,9.10
2019-04-03T00:13:44.795Z,8.90
2019-04-03T00:16:15.328Z,8.90
2019-04-03T00:18:40.638Z,8.80
2019-04-03T00:21:08.314Z,8.80
2019-04-03T00:23:36.373Z,8.60
2019-04-03T00:26:03.862Z,8.60
2019-04-03T00:28:31.918Z,8.60
2019-04-03T00:30:59.398Z,8.60
2019-04-03T00:33:27.812Z,8.60
2019-04-03T00:35:56.254Z,8.70
2019-04-03T00:38:24.324Z,8.70
2019-04-03T00:40:53.873Z,8.60
2019-04-03T00:43:21.178Z,8.60
2019-04-03T00:45:48.653Z,8.50
2019-04-03T00:48:16.127Z,8.40
2019-04-03T00:50:43.638Z,8.40
2019-04-03T00:53:11.109Z,8.20
2019-04-03T00:55:39.433Z,8.30
2019-04-03T00:58:19.089Z,8.30
2019-04-03T01:00:47.356Z,8.30
2019-04-03T01:03:14.856Z,8.30
2019-04-03T01:05:43.103Z,8.30
2019-04-03T01:08:10.699Z,8.20
2019-04-03T01:10:38.268Z,8.20
2019-04-03T01:13:05.831Z,8.20
2019-04-03T01:15:33.362Z,8.20
2019-04-03T01:18:04.305Z,8.30
2019-04-03T01:20:29.411Z,8.20
2019-04-03T01:22:57.069Z,8.20
2019-04-03T01:25:24.930Z,8.20
2019-04-03T01:27:52.528Z,8.30
2019-04-03T01:30:20.768Z,8.30
2019-04-03T01:32:48.345Z,8.30
2019-04-03T01:35:17.428Z,8.20
2019-04-03T01:37:44.195Z,8.10
2019-04-03T01:40:11.678Z,8.10
2019-04-03T01:42:39.941Z,8.00
2019-04-03T01:45:08.937Z,8.00
2019-04-03T01:47:36.526Z,8.00
2019-04-03T01:50:04.770Z,8.00
2019-04-03T01:52:32.389Z,8.00
2019-04-03T01:55:03.404Z,8.00
2019-04-03T01:57:28.393Z,8.00
2019-04-03T01:59:57.462Z,8.20
2019-04-03T02:02:26.152Z,8.20
2019-04-03T02:04:53.629Z,8.20
2019-04-03T02:07:21.152Z,7.90
2019-04-03T02:09:48.702Z,8.10
2019-04-03T02:12:17.957Z,7.60
2019-04-03T02:14:44.777Z,7.60
2019-04-03T02:17:12.478Z,7.60
2019-04-03T02:19:39.762Z,7.60
2019-04-03T02:22:08.007Z,7.40
2019-04-03T02:24:35.498Z,7.30
2019-04-03T02:27:03.601Z,7.20
2019-04-03T02:29:32.070Z,7.10
2019-04-03T02:32:00.611Z,7.10
2019-04-03T02:34:27.983Z,7.00
2019-04-03T02:36:55.477Z,7.00
2019-04-03T02:39:27.321Z,7.10
2019-04-03T02:41:51.403Z,7.10
2019-04-03T02:44:20.052Z,7.30
2019-04-03T02:46:46.757Z,7.10
2019-04-03T02:49:15.427Z,7.30
2019-04-03T02:51:42.993Z,7.30
2019-04-03T02:54:26.435Z,7.30
2019-04-03T02:56:54.526Z,7.20
2019-04-03T02:59:25.131Z,7.10
2019-04-03T03:01:50.442Z,7.10
2019-04-03T03:04:20.466Z,7.20
2019-04-03T03:06:46.390Z,7.00
2019-04-03T03:09:14.252Z,7.00
2019-04-03T03:11:41.377Z,7.00
2019-04-03T03:14:09.085Z,7.10
2019-04-03T03:16:37.451Z,6.90
2019-04-03T03:19:05.352Z,6.90
2019-04-03T03:21:33.309Z,7.00
2019-04-03T03:24:01.077Z,7.00
2019-04-03T03:26:28.650Z,6.90
2019-04-03T03:28:56.845Z,6.70
2019-04-03T03:31:56.701Z,6.70
2019-04-03T03:33:51.896Z,7.00
2019-04-03T03:36:24.078Z,6.90
2019-04-03T03:38:48.470Z,6.60
2019-04-03T03:41:15.736Z,6.60
2019-04-03T03:43:43.298Z,6.70
2019-04-03T03:46:11.155Z,6.60
2019-04-03T03:48:42.058Z,6.10
2019-04-03T03:51:07.856Z,6.60
2019-04-03T03:53:35.565Z,6.50
2019-04-03T03:56:04.222Z,6.30
2019-04-03T03:58:33.481Z,6.00
2019-04-03T04:01:01.507Z,6.00
2019-04-03T04:03:29.304Z,6.00
2019-04-03T04:05:56.949Z,6.10
2019-04-03T04:08:25.205Z,5.90
2019-04-03T04:10:52.581Z,5.90
2019-04-03T04:13:20.970Z,5.80
2019-04-03T04:15:48.403Z,5.80
2019-04-03T04:18:16.220Z,5.90
2019-04-03T04:20:44.447Z,5.80
2019-04-03T04:23:12.815Z,5.70
2019-04-03T04:25:41.051Z,5.70
2019-04-03T04:28:09.176Z,5.80
2019-04-03T04:30:36.861Z,5.60
2019-04-03T04:33:04.428Z,5.70
2019-04-03T04:35:32.006Z,5.70
2019-04-03T04:37:59.624Z,5.70
2019-04-03T04:40:28.976Z,5.80
2019-04-03T04:42:56.800Z,5.80
2019-04-03T04:45:24.269Z,5.80
2019-04-03T04:47:51.859Z,5.90
2019-04-03T04:50:24.259Z,5.80
2019-04-03T04:52:49.103Z,5.90
2019-04-03T04:55:17.320Z,5.80
2019-04-03T04:57:44.793Z,5.80
2019-04-03T05:00:13.669Z,5.90
2019-04-03T05:02:39.907Z,5.90
2019-04-03T05:05:08.936Z,5.80
2019-04-03T05:07:35.758Z,5.90
2019-04-03T05:10:05.926Z,5.90
2019-04-03T05:12:34.130Z,5.80
2019-04-03T05:15:01.606Z,5.80
2019-04-03T05:17:29.440Z,5.80
2019-04-03T05:19:57.488Z,5.80
2019-04-03T05:22:25.734Z,5.70
2019-04-03T05:24:53.209Z,5.70
2019-04-03T05:27:20.771Z,6.10
2019-04-03T05:29:48.337Z,6.00
2019-04-03T05:32:15.879Z,6.00
2019-04-03T05:34:44.422Z,5.80
2019-04-03T05:37:12.005Z,5.80
2019-04-03T05:39:39.303Z,5.80
2019-04-03T05:42:07.196Z,5.80
2019-04-03T05:44:34.678Z,5.80
2019-04-03T05:47:02.803Z,5.90
2019-04-03T05:49:30.271Z,5.80
2019-04-03T05:51:57.812Z,5.80
2019-04-03T05:54:26.502Z,5.90
2019-04-03T05:56:54.243Z,5.90
2019-04-03T05:59:22.472Z,5.90
2019-04-03T06:01:49.949Z,5.90
2019-04-03T06:04:18.379Z,5.90
2019-04-03T06:06:47.308Z,5.80
2019-04-03T06:09:15.007Z,5.80
2019-04-03T06:11:43.283Z,5.90
2019-04-03T06:14:11.726Z,5.90
2019-04-03T06:16:39.931Z,5.90
2019-04-03T06:19:07.594Z,5.90
2019-04-03T06:21:35.087Z,5.90
2019-04-03T06:24:04.630Z,6.00
2019-04-03T06:26:32.135Z,6.00
2019-04-03T06:29:01.300Z,6.10
2019-04-03T06:31:29.828Z,6.10
2019-04-03T06:33:57.339Z,6.10
2019-04-03T06:36:25.042Z,6.20
2019-04-03T06:38:55.440Z,6.20
2019-04-03T06:41:21.590Z,6.20
2019-04-03T06:43:51.414Z,6.30
2019-04-03T06:46:18.091Z,6.40
2019-04-03T06:48:46.351Z,6.50
2019-04-03T06:51:15.641Z,6.50
2019-04-03T06:53:41.572Z,6.80
2019-04-03T06:58:40.170Z,7.40
2019-04-03T07:01:06.927Z,7.40
2019-04-03T07:03:35.914Z,8.10
2019-04-03T07:06:05.479Z,8.00
2019-04-03T07:08:35.631Z,8.20
2019-04-03T07:11:01.167Z,7.30
2019-04-03T07:13:29.956Z,7.20
2019-04-03T07:15:57.146Z,7.00
2019-04-03T07:18:23.967Z,6.90
2019-04-03T07:20:52.730Z,6.90
2019-04-03T07:23:20.086Z,6.90
2019-04-03T07:25:47.877Z,6.90
2019-04-03T07:28:16.530Z,6.90
2019-04-03T07:30:44.626Z,6.90
2019-04-03T07:33:12.420Z,6.80
2019-04-03T07:35:40.656Z,6.90
2019-04-03T07:38:07.471Z,6.90
2019-04-03T07:40:35.730Z,7.00
2019-04-03T07:43:03.881Z,7.00
2019-04-03T07:45:32.722Z,7.10
2019-04-03T07:47:59.549Z,7.10
2019-04-03T07:50:27.791Z,7.20
2019-04-03T07:52:55.302Z,7.20
2019-04-03T07:55:24.273Z,7.30
2019-04-03T07:57:51.742Z,7.70
2019-04-03T08:00:18.924Z,7.70
2019-04-03T08:02:49.508Z,7.90
2019-04-03T08:05:14.751Z,7.90
2019-04-03T08:07:42.231Z,7.80
2019-04-03T08:10:10.625Z,7.70
2019-04-03T08:12:39.080Z,7.70
2019-04-03T08:15:06.902Z,7.70
2019-04-03T08:17:34.910Z,7.70
2019-04-03T08:20:02.788Z,7.70
2019-04-03T08:22:32.725Z,7.80
2019-04-03T08:24:58.448Z,7.80
2019-04-03T08:27:26.205Z,7.80
2019-04-03T08:29:53.688Z,7.90
2019-04-03T08:32:21.988Z,8.60
2019-04-03T08:34:50.241Z,8.90
2019-04-03T08:37:28.447Z,8.90
2019-04-03T08:39:48.336Z,8.70
2019-04-03T08:42:13.806Z,8.50
2019-04-03T08:44:41.114Z,8.50
2019-04-03T08:47:08.596Z,8.50
2019-04-03T08:49:36.837Z,8.70
2019-04-03T08:52:05.664Z,8.70
2019-04-03T08:54:31.986Z,9.00
2019-04-03T08:57:00.151Z,9.00
2019-04-03T08:59:28.734Z,9.00
2019-04-03T09:01:56.164Z,9.00
2019-04-03T09:04:24.285Z,9.10
2019-04-03T09:06:54.096Z,9.00
2019-04-03T09:09:19.610Z,9.10
2019-04-03T09:11:47.943Z,9.20
2019-04-03T09:14:15.274Z,9.20
2019-04-03T09:16:43.533Z,9.80
2019-04-03T09:19:11.026Z,9.70
2019-04-03T09:21:39.265Z,10.10
2019-04-03T09:24:07.067Z,10.00
2019-04-03T09:26:38.052Z,10.40
2019-04-03T09:29:04.495Z,10.40
2019-04-03T09:31:32.976Z,10.30
2019-04-03T09:34:00.361Z,10.30
2019-04-03T09:36:28.347Z,10.30
2019-04-03T09:38:56.323Z,11.20
2019-04-03T09:41:25.108Z,11.00
2019-04-03T09:43:54.503Z,11.00
2019-04-03T09:46:21.356Z,10.30
2019-04-03T09:48:48.507Z,10.20
2019-04-03T09:51:16.021Z,10.00
2019-04-03T09:53:44.392Z,10.00
2019-04-03T09:56:12.080Z,10.00
2019-04-03T09:58:40.098Z,10.10
2019-04-03T10:01:07.662Z,10.10
2019-04-03T10:03:35.144Z,10.20
2019-04-03T10:06:04.341Z,10.20
2019-04-03T10:08:31.841Z,10.20
2019-04-03T10:11:00.266Z,10.30
2019-04-03T10:13:28.001Z,10.30
2019-04-03T10:15:55.495Z,10.40
2019-04-03T10:18:23.221Z,10.40
2019-04-03T10:20:50.866Z,10.40
2019-04-03T10:23:18.398Z,10.40
2019-04-03T10:25:45.961Z,10.40
2019-04-03T10:28:14.795Z,10.50
2019-04-03T10:30:42.019Z,10.30
2019-04-03T10:33:09.499Z,10.30
2019-04-03T10:35:39.599Z,10.30
2019-04-03T10:38:06.319Z,10.20
2019-04-03T10:40:34.319Z,10.20
2019-04-03T10:43:04.650Z,10.30
2019-04-03T10:45:30.066Z,10.30
2019-04-03T10:47:57.958Z,10.60
2019-04-03T10:50:25.222Z,10.60
2019-04-03T10:52:52.557Z,10.30
2019-04-03T10:55:20.800Z,9.30
2019-04-03T10:57:48.513Z,9.30
2019-04-03T11:00:16.067Z,9.10
2019-04-03T11:02:43.545Z,9.00
2019-04-03T11:05:11.985Z,8.90
2019-04-03T11:07:40.181Z,9.00
2019-04-03T11:10:07.757Z,9.00
2019-04-03T11:12:35.508Z,9.00
2019-04-03T11:15:04.748Z,8.90
2019-04-03T11:17:32.939Z,8.90
2019-04-03T11:20:01.232Z,8.90
2019-04-03T11:22:39.763Z,8.80
2019-04-03T11:24:57.514Z,8.70
2019-04-03T11:27:40.415Z,8.60
2019-04-03T11:29:52.902Z,8.60
2019-04-03T11:32:22.870Z,8.00
2019-04-03T11:34:50.102Z,7.90
2019-04-03T11:37:16.810Z,8.00
2019-04-03T11:39:46.214Z,8.30
2019-04-03T11:42:22.832Z,8.60
2019-04-03T11:44:41.286Z,8.60
2019-04-03T11:47:08.801Z,9.00
2019-04-03T11:49:36.549Z,9.40
2019-04-03T11:52:03.977Z,9.10
2019-04-03T11:54:31.381Z,9.00
2019-04-03T11:56:59.900Z,8.70
2019-04-03T11:59:27.328Z,8.70
2019-04-03T12:01:55.816Z,8.80
2019-04-03T12:04:23.378Z,8.80
2019-04-03T12:06:51.967Z,8.70
2019-04-03T12:09:19.466Z,8.30
2019-04-03T12:11:46.919Z,8.30
2019-04-03T12:14:16.661Z,8.20
2019-04-03T12:16:41.888Z,8.20
2019-04-03T12:19:09.377Z,8.40
2019-04-03T12:21:38.042Z,8.60
2019-04-03T12:24:05.229Z,8.60
2019-04-03T12:26:32.957Z,8.70
2019-04-03T12:29:00.255Z,8.80
2019-04-03T12:31:27.900Z,9.00
2019-04-03T12:34:02.735Z,9.10
2019-04-03T12:36:26.607Z,8.80
2019-04-03T12:38:54.581Z,8.80
2019-04-03T12:41:19.873Z,8.60
2019-04-03T12:43:49.062Z,8.60
2019-04-03T12:46:15.159Z,8.30
2019-04-03T12:48:42.496Z,8.20
2019-04-03T12:51:12.160Z,7.90
2019-04-03T12:53:39.294Z,7.90
2019-04-03T12:56:07.592Z,7.90
2019-04-03T12:58:36.831Z,7.80
2019-04-03T13:01:02.678Z,7.70
2019-04-03T13:03:30.234Z,7.60
2019-04-03T13:05:58.065Z,7.50
2019-04-03T13:08:26.246Z,7.60
2019-04-03T13:10:54.230Z,7.80
2019-04-03T13:13:21.700Z,7.80
2019-04-03T13:15:49.385Z,7.90
2019-04-03T13:18:16.754Z,8.20
2019-04-03T13:20:44.552Z,8.60
2019-04-03T13:23:13.305Z,8.70
2019-04-03T13:25:39.366Z,8.90
2019-04-03T13:28:07.738Z,9.00
2019-04-03T13:30:35.640Z,9.00
2019-04-03T13:33:06.717Z,9.40
2019-04-03T13:35:33.116Z,9.70
2019-04-03T13:38:01.488Z,10.10
2019-04-03T13:40:28.804Z,10.00
2019-04-03T13:42:56.434Z,10.20
2019-04-03T13:45:23.942Z,10.40
2019-04-03T13:47:51.433Z,10.50
2019-04-03T13:50:21.868Z,10.60
2019-04-03T13:52:49.810Z,10.60
2019-04-03T13:55:15.564Z,10.60
2019-04-03T13:57:43.901Z,10.70
2019-04-03T14:00:19.669Z,10.70
2019-04-03T14:02:38.814Z,10.70
2019-04-03T14:05:06.503Z,11.00
2019-04-03T14:07:34.066Z,10.90
2019-04-03T14:10:02.266Z,10.90
2019-04-03T14:12:29.732Z,10.90
2019-04-03T14:14:57.988Z,10.70
2019-04-03T14:17:26.261Z,10.80
2019-04-03T14:19:53.786Z,10.80
2019-04-03T14:22:21.555Z,11.00
2019-04-03T14:24:52.242Z,10.80
2019-04-03T14:27:23.278Z,10.90
2019-04-03T14:29:45.126Z,10.90
2019-04-03T14:32:14.272Z,11.10
2019-04-03T14:34:40.957Z,11.00
2019-04-03T14:37:08.626Z,11.00
2019-04-03T14:39:37.170Z,10.90
2019-04-03T14:42:07.005Z,10.90
2019-04-03T14:44:31.934Z,10.80
2019-04-03T14:47:01.080Z,10.50
2019-04-03T14:49:28.683Z,10.40
2019-04-03T14:51:56.144Z,10.30
2019-04-03T14:54:24.573Z,10.30
2019-04-03T14:56:51.390Z,10.30
2019-04-03T14:59:19.187Z,10.20
2019-04-03T15:01:47.503Z,10.10
2019-04-03T15:04:15.304Z,10.00
2019-04-03T15:06:44.220Z,10.00
2019-04-03T15:09:10.303Z,9.90
2019-04-03T15:11:38.216Z,9.90
2019-04-03T15:14:05.303Z,9.80
2019-04-03T15:16:33.547Z,9.80
2019-04-03T15:19:02.103Z,9.80
2019-04-03T15:21:28.555Z,9.90
2019-04-03T15:23:56.541Z,9.90
2019-04-03T15:26:24.838Z,9.90
2019-04-03T15:28:52.797Z,9.90
2019-04-03T15:31:20.382Z,9.90
2019-04-03T15:33:49.194Z,10.20
2019-04-03T15:36:17.134Z,10.20
2019-04-03T15:38:46.255Z,10.00
2019-04-03T15:41:13.381Z,10.00
2019-04-03T15:43:40.896Z,10.00
2019-04-03T15:46:08.673Z,9.90
2019-04-03T15:48:39.677Z,9.60
2019-04-03T15:51:06.663Z,9.70
2019-04-03T15:53:33.505Z,9.30
2019-04-03T15:56:01.315Z,9.30
2019-04-03T15:58:28.439Z,9.30
2019-04-03T16:00:56.205Z,9.30
2019-04-03T16:03:23.433Z,9.40
2019-04-03T16:05:51.948Z,9.50
2019-04-03T16:08:19.651Z,9.50
2019-04-03T16:10:46.669Z,9.40
2019-04-03T16:13:15.805Z,9.30
2019-04-03T16:15:42.040Z,9.30
2019-04-03T16:18:09.145Z,9.40
2019-04-03T16:20:36.693Z,9.60
2019-04-03T16:23:05.103Z,9.20
2019-04-03T16:25:33.200Z,9.30
2019-04-03T16:28:01.359Z,9.40
2019-04-03T16:30:29.103Z,9.20
2019-04-03T16:33:01.431Z,9.40
2019-04-03T16:35:26.612Z,9.40
2019-04-03T16:37:56.585Z,9.40
2019-04-03T16:40:23.588Z,9.30
2019-04-03T16:42:52.989Z,9.30
2019-04-03T16:45:18.307Z,9.20
2019-04-03T16:47:45.867Z,8.90
2019-04-03T16:50:14.074Z,8.70
2019-04-03T16:52:41.589Z,8.60
2019-04-03T16:55:09.201Z,8.60
2019-04-03T16:57:37.165Z,8.50
2019-04-03T17:00:07.615Z,8.40
2019-04-03T17:02:32.411Z,8.70
2019-04-03T17:05:00.073Z,8.60
2019-04-03T17:07:27.587Z,8.70
2019-04-03T17:09:55.303Z,8.70
2019-04-03T17:12:22.867Z,8.80
2019-04-03T17:14:50.352Z,8.60
2019-04-03T17:17:17.828Z,8.60
2019-04-03T17:19:46.078Z,8.40
2019-04-03T17:22:14.159Z,8.40
2019-04-03T17:24:47.891Z,8.50
2019-04-03T17:27:09.466Z,8.50
2019-04-03T17:29:37.370Z,8.30
2019-04-03T17:32:07.765Z,8.40
2019-04-03T17:34:32.794Z,8.60
2019-04-03T17:37:00.369Z,8.60
2019-04-03T17:39:27.823Z,8.80
2019-04-03T17:41:55.361Z,8.60
2019-04-03T17:44:23.259Z,9.00
2019-04-03T17:46:51.547Z,8.70
2019-04-03T17:49:19.213Z,8.70
2019-04-03T17:51:46.686Z,8.40
2019-04-03T17:54:14.947Z,8.40
2019-04-03T17:56:43.684Z,8.50
2019-04-03T17:59:10.926Z,8.50
2019-04-03T18:01:39.581Z,8.40
2019-04-03T18:04:07.822Z,8.50
2019-04-03T18:06:35.319Z,8.50
2019-04-03T18:09:04.166Z,8.40
2019-04-03T18:11:31.163Z,8.20
2019-04-03T18:13:58.726Z,8.30
2019-04-03T18:16:27.914Z,8.10
2019-04-03T18:18:54.591Z,8.30
2019-04-03T18:21:22.073Z,8.30
2019-04-03T18:23:52.710Z,8.50
2019-04-03T18:26:18.582Z,8.30
2019-04-03T18:28:46.121Z,8.30
2019-04-03T18:31:14.091Z,8.50
2019-04-03T18:33:41.888Z,8.20
2019-04-03T18:36:09.375Z,8.20
2019-04-03T18:38:38.593Z,8.10
2019-04-03T18:41:05.292Z,8.30
2019-04-03T18:43:32.777Z,8.30
2019-04-03T18:46:00.407Z,8.20
2019-04-03T18:48:27.907Z,8.00
2019-04-03T18:50:55.424Z,7.90
2019-04-03T18:53:23.038Z,7.80
2019-04-03T18:55:50.558Z,7.70
2019-04-03T18:58:18.048Z,7.80
2019-04-03T19:00:45.621Z,7.70
2019-04-03T19:03:14.667Z,7.60
2019-04-03T19:05:42.831Z,7.60
2019-04-03T19:08:13.330Z,7.90
2019-04-03T19:10:38.592Z,7.80
2019-04-03T19:13:06.150Z,7.70
2019-04-03T19:15:34.186Z,7.60
2019-04-03T19:18:06.006Z,7.70
2019-04-03T19:20:28.908Z,7.80
2019-04-03T19:23:02.514Z,7.80
2019-04-03T19:25:23.930Z,7.80
2019-04-03T19:27:52.183Z,7.60
2019-04-03T19:30:19.708Z,7.60
2019-04-03T19:32:47.243Z,7.50
2019-04-03T19:35:14.806Z,7.60
2019-04-03T19:37:44.893Z,7.60
2019-04-03T19:40:10.577Z,7.60
2019-04-03T19:42:37.396Z,7.50
2019-04-03T19:45:04.880Z,7.80
2019-04-03T19:47:33.143Z,7.60
2019-04-03T19:50:01.090Z,7.50
2019-04-03T19:52:28.208Z,7.50
2019-04-03T19:54:55.789Z,7.60
2019-04-03T19:57:24.946Z,7.60
2019-04-03T19:59:52.293Z,7.50
2019-04-03T20:02:20.654Z,7.70
2019-04-03T20:04:48.291Z,7.70
2019-04-03T20:07:15.663Z,7.50
2019-04-03T20:09:43.143Z,7.60
2019-04-03T20:12:10.709Z,7.70
2019-04-03T20:14:38.182Z,7.90
2019-04-03T20:17:07.181Z,7.90
2019-04-03T20:19:35.636Z,7.90
2019-04-03T20:22:06.724Z,8.00
2019-04-03T20:24:32.827Z,7.80
2019-04-03T20:27:00.306Z,7.80
2019-04-03T20:29:31.469Z,7.80
2019-04-03T20:31:56.142Z,8.00
2019-04-03T20:34:23.701Z,8.00
2019-04-03T20:36:54.800Z,8.10
2019-04-03T20:39:19.603Z,8.10
2019-04-03T20:41:47.078Z,8.10
2019-04-03T20:44:16.738Z,8.10
2019-04-03T20:46:42.367Z,8.00
2019-04-03T20:49:10.806Z,7.70
2019-04-03T20:51:39.906Z,7.70
2019-04-03T20:54:05.791Z,7.60
2019-04-03T20:56:34.312Z,7.50
2019-04-03T20:59:01.558Z,7.50
2019-04-03T21:01:29.177Z,7.50
2019-04-03T21:03:57.448Z,7.50
2019-04-03T21:06:24.921Z,7.60
2019-04-03T21:08:53.166Z,7.20
2019-04-03T21:11:21.779Z,7.10
2019-04-03T21:13:49.358Z,7.20
2019-04-03T21:16:18.473Z,7.10
2019-04-03T21:18:46.819Z,7.20
2019-04-03T21:21:14.300Z,7.10
2019-04-03T21:23:42.571Z,7.20
2019-04-03T21:26:10.092Z,7.10
2019-04-03T21:28:37.613Z,7.10
2019-04-03T21:31:06.127Z,6.90
2019-04-03T21:33:33.738Z,6.90
2019-04-03T21:36:01.594Z,6.90
2019-04-03T21:38:29.140Z,7.00
2019-04-03T21:40:57.010Z,7.00
2019-04-03T21:43:24.813Z,6.90
2019-04-03T21:45:53.808Z,6.70
2019-04-03T21:48:22.246Z,6.80
2019-04-03T21:50:50.430Z,6.80
2019-04-03T21:53:18.137Z,7.10
2019-04-03T21:55:45.720Z,7.00
2019-04-03T21:58:13.960Z,6.80
2019-04-03T22:00:55.165Z,6.80
2019-04-03T22:03:21.020Z,6.80
2019-04-03T22:05:48.577Z,6.80
2019-04-03T22:08:16.840Z,6.60
2019-04-03T22:10:44.323Z,6.60
2019-04-03T22:13:12.564Z,6.40
2019-04-03T22:15:40.179Z,6.40
2019-04-03T22:18:07.653Z,6.30
2019-04-03T22:20:35.157Z,6.30
2019-04-03T22:23:04.882Z,6.30
2019-04-03T22:25:31.832Z,6.50
2019-04-03T22:27:59.381Z,6.40
2019-04-03T22:30:26.988Z,6.40
2019-04-03T22:32:55.812Z,6.30
2019-04-03T22:35:23.733Z,6.40
2019-04-03T22:37:52.044Z,6.40
2019-04-03T22:40:19.527Z,6.40
2019-04-03T22:42:48.394Z,6.30
2019-04-03T22:45:19.767Z,6.20
2019-04-03T22:47:44.130Z,6.30
2019-04-03T22:50:12.477Z,6.20
2019-04-03T22:52:40.462Z,6.20
2019-04-03T22:55:07.562Z,6.20
2019-04-03T22:57:35.076Z,6.30
2019-04-03T23:00:04.533Z,6.20
2019-04-03T23:02:32.366Z,6.30
2019-04-03T23:05:00.430Z,6.30
2019-04-03T23:07:28.702Z,6.40
2019-04-03T23:09:56.738Z,6.50
2019-04-03T23:12:23.825Z,6.30
2019-04-03T23:14:51.393Z,6.30
2019-04-03T23:17:20.394Z,6.20
2019-04-03T23:19:47.988Z,6.20
2019-04-03T23:22:16.232Z,6.40
2019-04-03T23:24:43.792Z,6.30
2019-04-03T23:27:11.359Z,6.40
2019-04-03T23:29:38.833Z,6.50
2019-04-03T23:32:06.309Z,6.30
2019-04-03T23:34:34.620Z,6.10
2019-04-03T23:37:02.098Z,6.10
2019-04-03T23:39:29.578Z,6.10
2019-04-03T23:41:57.126Z,6.10
2019-04-03T23:44:24.717Z,6.00
2019-04-03T23:46:52.194Z,6.00
2019-04-03T23:49:20.171Z,6.00
2019-04-03T23:51:48.022Z,6.00
2019-04-03T23:54:15.489Z,5.90
2019-04-03T23:56:42.987Z,5.80
2019-04-03T23:59:13.001Z,5.60
